Time;durP1;ratioP1;P1;durP2;ratioP2;P2;SDS_P1;SDS_P2;PMS_P1;PMS_P2;Temp;Humidity;BMP_temperature;BMP_pressure;BME280_temperature;BME280_humidity;BME280_pressure;Samples;Min_cycle;Max_cycle;Signal;HPM_P1;HPM_P2
2021/03/14 00:01:04;;;;;;;6.15;1.88;;;;;;;-143.98;100.00;68091.63;5053349;28;20075;-85
2021/03/14 00:03:31;;;;;;;4.15;1.20;;;;;;;-143.98;100.00;68091.63;5052927;28;20076;-85
2021/03/14 00:05:58;;;;;;;2.00;0.90;;;;;;;-143.98;100.00;68091.63;5054275;28;20056;-85
2021/03/14 00:08:26;;;;;;;4.45;1.00;;;;;;;-143.98;100.00;68091.63;5055304;28;20053;-85
2021/03/14 00:11:03;;;;;;;4.38;0.95;;;;;;;-143.98;100.00;68091.63;5055649;28;20068;-85
2021/03/14 00:13:32;;;;;;;5.63;1.15;;;;;;;-143.98;100.00;68091.63;5054878;28;20335;-85
2021/03/14 00:16:02;;;;;;;5.45;1.10;;;;;;;-143.98;100.00;68091.63;5055045;28;20049;-85
2021/03/14 00:18:33;;;;;;;4.97;0.98;;;;;;;-143.98;100.00;68091.63;5056013;28;20051;-85
2021/03/14 00:21:03;;;;;;;4.72;1.10;;;;;;;-143.98;100.00;68091.63;5038785;28;20049;-85
2021/03/14 00:23:29;;;;;;;6.38;1.30;;;;;;;-143.98;100.00;68091.63;5056088;28;20302;-85
2021/03/14 00:25:56;;;;;;;9.38;2.47;;;;;;;-143.98;100.00;68091.63;5074327;28;20066;-86
2021/03/14 00:28:24;;;;;;;7.22;1.58;;;;;;;-143.98;100.00;68091.63;5075212;28;20044;-85
2021/03/14 00:30:54;;;;;;;12.85;1.42;;;;;;;-143.98;100.00;68091.63;5092499;28;20230;-85
2021/03/14 00:33:23;;;;;;;7.60;1.63;;;;;;;-143.98;100.00;68091.63;5074336;28;20357;-85
2021/03/14 00:35:52;;;;;;;8.93;1.75;;;;;;;-143.98;100.00;68091.63;5053768;28;20102;-85
2021/03/14 00:38:22;;;;;;;12.93;1.50;;;;;;;-143.98;100.00;68091.63;5072937;28;20052;-85
2021/03/14 00:40:54;;;;;;;9.48;1.42;;;;;;;-143.98;100.00;68091.63;5072389;28;20105;-85
2021/03/14 00:43:20;;;;;;;9.70;1.50;;;;;;;-143.98;100.00;68091.63;5072417;28;20052;-85
2021/03/14 00:45:47;;;;;;;10.68;1.70;;;;;;;-143.98;100.00;68091.63;5072584;28;20044;-85
2021/03/14 00:48:31;;;;;;;8.63;1.27;;;;;;;-143.98;100.00;68091.63;5074898;28;20074;-85
2021/03/14 00:51:00;;;;;;;15.45;1.67;;;;;;;-143.98;100.00;68091.63;5057828;28;20332;-85
2021/03/14 00:53:29;;;;;;;8.07;1.88;;;;;;;-143.98;100.00;68091.63;5090186;28;20048;-85
2021/03/14 00:55:56;;;;;;;9.82;2.05;;;;;;;-143.98;100.00;68091.63;5075700;28;20152;-86
2021/03/14 00:58:22;;;;;;;7.88;1.40;;;;;;;-143.98;100.00;68091.63;5076183;28;20482;-85
2021/03/14 01:00:48;;;;;;;11.68;1.63;;;;;;;-143.98;100.00;68091.63;5090948;28;20044;-85
2021/03/14 01:03:20;;;;;;;12.32;1.40;;;;;;;-143.98;100.00;68091.63;5059124;28;20090;-85
2021/03/14 01:05:46;;;;;;;7.55;1.30;;;;;;;-143.98;100.00;68091.63;5075832;28;20046;-85
2021/03/14 01:08:17;;;;;;;10.27;1.77;;;;;;;-143.98;100.00;68091.63;5059822;28;20092;-86
2021/03/14 01:10:45;;;;;;;10.45;1.52;;;;;;;-143.98;100.00;68091.63;5061506;28;20052;-85
2021/03/14 01:13:21;;;;;;;4.38;1.60;;;;;;;-143.98;100.00;68091.63;5075104;28;20040;-85
2021/03/14 01:15:47;;;;;;;8.95;1.52;;;;;;;-143.98;100.00;68091.63;5088399;28;20059;-85
2021/03/14 01:18:21;;;;;;;5.78;1.30;;;;;;;-143.98;100.00;68091.63;5074926;28;20493;-85
2021/03/14 01:20:55;;;;;;;14.00;2.35;;;;;;;-143.98;100.00;68091.63;5076277;28;20055;-85
2021/03/14 01:23:22;;;;;;;7.85;1.35;;;;;;;-143.98;100.00;68091.63;5049948;28;20056;-85
2021/03/14 01:25:49;;;;;;;10.25;1.70;;;;;;;-143.98;100.00;68091.63;5058177;28;20086;-85
2021/03/14 01:28:15;;;;;;;8.98;1.15;;;;;;;-143.98;100.00;68091.63;5060348;28;20129;-85
2021/03/14 01:30:42;;;;;;;6.15;1.00;;;;;;;-143.98;100.00;68091.63;5075464;28;20053;-86
2021/03/14 01:33:10;;;;;;;7.82;1.08;;;;;;;-143.98;100.00;68091.63;5075367;28;20102;-84
2021/03/14 01:35:42;;;;;;;3.22;1.00;;;;;;;-143.98;100.00;68091.63;5073111;28;20048;-84
2021/03/14 01:38:09;;;;;;;7.95;1.15;;;;;;;-143.98;100.00;68091.63;5057626;28;20066;-84
2021/03/14 01:40:38;;;;;;;10.57;1.75;;;;;;;-143.98;100.00;68091.63;5074720;28;20189;-84
2021/03/14 01:43:07;;;;;;;4.60;1.10;;;;;;;-143.98;100.00;68091.63;5059517;28;20062;-84
2021/03/14 01:45:33;;;;;;;6.40;1.55;;;;;;;-143.98;100.00;68091.63;5074664;28;20330;-84
2021/03/14 01:48:06;;;;;;;7.38;1.08;;;;;;;-143.98;100.00;68091.63;5075279;28;20152;-85
2021/03/14 01:50:34;;;;;;;5.80;1.00;;;;;;;-143.98;100.00;68091.63;5057830;28;20058;-85
2021/03/14 01:53:01;;;;;;;7.20;1.30;;;;;;;-143.98;100.00;68091.63;5058737;28;20040;-85
2021/03/14 01:55:30;;;;;;;11.25;2.47;;;;;;;-143.98;100.00;68091.63;5073299;28;20048;-85
2021/03/14 01:57:58;;;;;;;3.20;0.93;;;;;;;-143.98;100.00;68091.63;5056568;28;20108;-85
2021/03/14 02:00:26;;;;;;;11.63;1.48;;;;;;;-143.98;100.00;68091.63;5076171;28;20061;-86
2021/03/14 02:03:11;;;;;;;11.82;1.80;;;;;;;-143.98;100.00;68091.63;5073170;28;20086;-85
2021/03/14 02:05:38;;;;;;;8.88;1.30;;;;;;;-143.98;100.00;68091.63;5057174;28;20044;-86
2021/03/14 02:08:07;;;;;;;6.13;1.63;;;;;;;-143.98;100.00;68091.63;5073166;28;20416;-86
2021/03/14 02:10:36;;;;;;;6.53;1.33;;;;;;;-143.98;100.00;68091.63;5057318;28;20060;-86
2021/03/14 02:13:20;;;;;;;13.48;1.20;;;;;;;-143.98;100.00;68091.63;5075611;28;20079;-86
2021/03/14 02:15:51;;;;;;;4.68;1.10;;;;;;;-143.98;100.00;68091.63;5058587;28;20386;-86
2021/03/14 02:18:24;;;;;;;8.77;1.42;;;;;;;-143.98;100.00;68091.63;5059320;28;20053;-86
2021/03/14 02:20:53;;;;;;;4.93;0.90;;;;;;;-143.98;100.00;68091.63;5093259;28;20048;-86
2021/03/14 02:23:56;;;;;;;7.85;1.30;;;;;;;-143.98;100.00;68091.63;5073802;28;20130;-86
2021/03/14 02:26:47;;;;;;;6.88;1.88;;;;;;;-143.98;100.00;68091.63;5058128;28;20060;-86
2021/03/14 02:29:22;;;;;;;8.15;1.48;;;;;;;-143.98;100.00;68091.63;5076830;28;20143;-86
2021/03/14 02:31:52;;;;;;;4.25;1.02;;;;;;;-143.98;100.00;68091.63;5060465;28;20066;-86
2021/03/14 02:34:23;;;;;;;4.90;1.13;;;;;;;-143.98;100.00;68091.63;5055375;28;20045;-86
2021/03/14 02:36:54;;;;;;;3.65;1.27;;;;;;;-143.98;100.00;68091.63;5062037;28;20096;-86
2021/03/14 02:39:23;;;;;;;7.57;1.20;;;;;;;-143.98;100.00;68091.63;5076308;28;20048;-85
2021/03/14 02:41:52;;;;;;;5.15;1.40;;;;;;;-143.98;100.00;68091.63;5092477;28;20108;-85
2021/03/14 02:44:20;;;;;;;7.85;1.45;;;;;;;-143.98;100.00;68091.63;5074697;28;20060;-85
2021/03/14 02:46:47;;;;;;;4.93;1.30;;;;;;;-143.98;100.00;68091.63;5063348;28;20408;-86
2021/03/14 02:49:13;;;;;;;9.25;1.83;;;;;;;-143.98;100.00;68091.63;5079773;28;20091;-86
2021/03/14 02:51:44;;;;;;;3.78;1.30;;;;;;;-143.98;100.00;68091.63;5063580;28;20044;-86
2021/03/14 02:54:16;;;;;;;4.78;1.52;;;;;;;-143.98;100.00;68091.63;5093607;28;20032;-85
2021/03/14 02:56:44;;;;;;;2.70;1.20;;;;;;;-143.98;100.00;68091.63;5073093;28;20060;-86
2021/03/14 02:59:18;;;;;;;4.60;1.23;;;;;;;-143.98;100.00;68091.63;5078294;28;20112;-86
2021/03/14 03:01:51;;;;;;;4.57;1.38;;;;;;;-143.98;100.00;68091.63;5080199;28;20053;-86
2021/03/14 03:04:22;;;;;;;6.25;1.52;;;;;;;-143.98;100.00;68091.63;5060154;28;20399;-86
2021/03/14 03:06:49;;;;;;;8.27;1.30;;;;;;;-143.98;100.00;68091.63;5078332;28;20112;-86
2021/03/14 03:09:17;;;;;;;8.38;1.50;;;;;;;-143.98;100.00;68091.63;5076725;28;20075;-85
2021/03/14 03:11:51;;;;;;;7.47;1.42;;;;;;;-143.98;100.00;68091.63;5061464;28;20232;-86
2021/03/14 03:14:18;;;;;;;9.70;1.52;;;;;;;-143.98;100.00;68091.63;5061492;28;20336;-86
2021/03/14 03:16:50;;;;;;;10.18;1.30;;;;;;;-143.98;100.00;68091.63;5076962;28;20048;-86
2021/03/14 03:19:18;;;;;;;8.55;1.33;;;;;;;-143.98;100.00;68091.63;5077458;28;20051;-86
2021/03/14 03:21:45;;;;;;;5.93;1.08;;;;;;;-143.98;100.00;68091.63;5077249;28;20074;-85
2021/03/14 03:24:15;;;;;;;6.82;0.98;;;;;;;-143.98;100.00;68091.63;5077842;28;20143;-85
2021/03/14 03:26:45;;;;;;;7.07;1.02;;;;;;;-143.98;100.00;68091.63;5062797;28;20044;-85
2021/03/14 03:29:13;;;;;;;4.88;1.10;;;;;;;-143.98;100.00;68091.63;5064594;28;20083;-85
2021/03/14 03:31:43;;;;;;;13.00;1.52;;;;;;;-143.98;100.00;68091.63;5066215;28;20059;-85
2021/03/14 03:34:10;;;;;;;7.93;0.90;;;;;;;-143.98;100.00;68091.63;5066528;28;20059;-85
2021/03/14 03:36:37;;;;;;;7.35;1.10;;;;;;;-143.98;100.00;68091.63;5082011;28;20047;-86
2021/03/14 03:39:10;;;;;;;4.15;1.00;;;;;;;-143.98;100.00;68091.63;5082409;28;20372;-86
2021/03/14 03:42:01;;;;;;;8.40;1.10;;;;;;;-143.98;100.00;68091.63;5080765;28;20219;-87
2021/03/14 03:44:33;;;;;;;5.50;0.70;;;;;;;-143.98;100.00;68091.63;5097435;28;20052;-86
2021/03/14 03:47:03;;;;;;;8.63;1.83;;;;;;;-143.98;100.00;68091.63;5064122;28;20046;-87
2021/03/14 03:49:31;;;;;;;5.15;0.82;;;;;;;-143.98;100.00;68091.63;5082265;28;20113;-86
2021/03/14 03:52:01;;;;;;;7.03;0.95;;;;;;;-143.98;100.00;68091.63;5064214;28;20078;-86
2021/03/14 03:54:35;;;;;;;5.38;0.85;;;;;;;-143.98;100.00;68091.63;5065420;28;20138;-86
2021/03/14 03:57:02;;;;;;;8.10;0.88;;;;;;;-143.98;100.00;68091.63;5096145;28;20128;-86
2021/03/14 03:59:31;;;;;;;5.20;0.80;;;;;;;-143.98;100.00;68091.63;5064563;28;20420;-86
2021/03/14 04:01:57;;;;;;;5.45;1.17;;;;;;;-143.98;100.00;68091.63;5063668;28;20067;-86
2021/03/14 04:04:33;;;;;;;3.83;0.93;;;;;;;-143.98;100.00;68091.63;5062990;28;20137;-86
2021/03/14 04:07:10;;;;;;;9.15;0.70;;;;;;;-143.98;100.00;68091.63;5064055;28;20083;-86
2021/03/14 04:09:53;;;;;;;8.32;1.05;;;;;;;-143.98;100.00;68091.63;5092405;28;20082;-86
2021/03/14 04:12:23;;;;;;;4.47;0.73;;;;;;;-143.98;100.00;68091.63;5078247;28;20039;-86
2021/03/14 04:14:49;;;;;;;5.60;0.65;;;;;;;-143.98;100.00;68091.63;5063396;28;20052;-85
2021/03/14 04:17:16;;;;;;;9.13;0.93;;;;;;;-143.98;100.00;68091.63;5062640;28;20373;-85
2021/03/14 04:19:43;;;;;;;5.55;0.93;;;;;;;-143.98;100.00;68091.63;5063024;28;20082;-85
2021/03/14 04:22:18;;;;;;;5.05;0.70;;;;;;;-143.98;100.00;68091.63;5076145;28;20135;-85
2021/03/14 04:24:46;;;;;;;5.25;0.80;;;;;;;-143.98;100.00;68091.63;5073931;28;20057;-86
2021/03/14 04:27:13;;;;;;;1.85;0.65;;;;;;;-143.98;100.00;68091.63;5073320;28;20602;-85
2021/03/14 04:29:43;;;;;;;5.43;0.93;;;;;;;-143.98;100.00;68091.63;5056120;28;20044;-86
2021/03/14 04:32:16;;;;;;;6.13;1.00;;;;;;;-143.98;100.00;68091.63;5072017;28;20113;-85
2021/03/14 04:34:48;;;;;;;6.10;0.85;;;;;;;-143.98;100.00;68091.63;5072248;28;20040;-85
2021/03/14 04:37:18;;;;;;;7.00;0.90;;;;;;;-143.98;100.00;68091.63;5057764;28;20320;-85
2021/03/14 04:39:44;;;;;;;3.55;0.80;;;;;;;-143.98;100.00;68091.63;5074289;28;20135;-86
2021/03/14 04:42:13;;;;;;;5.50;0.88;;;;;;;-143.98;100.00;68091.63;5055657;28;20044;-86
2021/03/14 04:44:43;;;;;;;3.63;0.65;;;;;;;-143.98;100.00;68091.63;5107402;28;20040;-86
2021/03/14 04:47:09;;;;;;;3.50;0.80;;;;;;;-143.98;100.00;68091.63;5041409;28;20399;-86
2021/03/14 04:49:37;;;;;;;3.40;0.68;;;;;;;-143.98;100.00;68091.63;5051949;28;20056;-87
2021/03/14 04:52:11;;;;;;;4.22;0.85;;;;;;;-143.98;100.00;68091.63;5094203;28;20044;-87
2021/03/14 04:54:42;;;;;;;3.40;0.55;;;;;;;-143.98;100.00;68091.63;5071069;28;20059;-87
2021/03/14 04:57:08;;;;;;;7.13;0.80;;;;;;;-143.98;100.00;68091.63;5086957;28;20040;-87
2021/03/14 04:59:36;;;;;;;3.03;0.70;;;;;;;-143.98;100.00;68091.63;5070087;28;20102;-87
2021/03/14 05:02:06;;;;;;;8.10;1.05;;;;;;;-143.98;100.00;68091.63;5061400;28;20045;-87
2021/03/14 05:04:34;;;;;;;3.78;0.88;;;;;;;-143.98;100.00;68091.63;5074254;28;20119;-87
2021/03/14 05:07:00;;;;;;;8.23;0.93;;;;;;;-143.98;100.00;68091.63;5058564;28;20045;-87
2021/03/14 05:09:27;;;;;;;5.75;0.98;;;;;;;-143.98;100.00;68091.63;5052824;28;20052;-86
2021/03/14 05:11:54;;;;;;;7.32;0.90;;;;;;;-143.98;100.00;68091.63;5074066;28;20044;-86
2021/03/14 05:14:20;;;;;;;4.15;0.70;;;;;;;-143.98;100.00;68091.63;5057221;28;20393;-87
2021/03/14 05:16:49;;;;;;;4.97;0.80;;;;;;;-143.98;100.00;68091.63;5076592;28;20063;-86
2021/03/14 05:19:16;;;;;;;7.03;1.17;;;;;;;-143.98;100.00;68091.63;5076734;28;20117;-87
2021/03/14 05:22:00;;;;;;;6.15;0.90;;;;;;;-143.98;100.00;68091.63;5075160;28;20052;-87
2021/03/14 05:24:27;;;;;;;5.53;1.55;;;;;;;-143.98;100.00;68091.63;5058634;28;20079;-86
2021/03/14 05:27:00;;;;;;;4.75;0.90;;;;;;;-143.98;100.00;68091.63;5059192;28;20064;-87
2021/03/14 05:29:29;;;;;;;11.43;1.60;;;;;;;-143.98;100.00;68091.63;5077198;28;20063;-86
2021/03/14 05:31:56;;;;;;;19.20;3.25;;;;;;;-143.98;100.00;68091.63;5076216;28;20053;-86
2021/03/14 05:34:28;;;;;;;15.15;2.80;;;;;;;-143.98;100.00;68091.63;5059296;28;20062;-86
2021/03/14 05:36:55;;;;;;;20.08;3.00;;;;;;;-143.98;100.00;68091.63;5075131;28;20076;-86
2021/03/14 05:39:21;;;;;;;24.42;3.05;;;;;;;-143.98;100.00;68091.63;5075426;28;20048;-86
2021/03/14 05:41:47;;;;;;;22.13;3.28;;;;;;;-143.98;100.00;68091.63;5073438;28;20059;-86
2021/03/14 05:44:16;;;;;;;19.02;3.20;;;;;;;-143.98;100.00;68091.63;5052577;28;20090;-86
2021/03/14 05:46:42;;;;;;;23.77;4.00;;;;;;;-143.98;100.00;68091.63;5075766;28;20190;-86
2021/03/14 05:49:12;;;;;;;18.23;3.47;;;;;;;-143.98;100.00;68091.63;5075667;28;20052;-86
2021/03/14 05:51:52;;;;;;;18.25;3.53;;;;;;;-143.98;100.00;68091.63;5058333;28;20132;-86
2021/03/14 05:54:19;;;;;;;22.50;4.00;;;;;;;-143.98;100.00;68091.63;5056003;28;20383;-86
2021/03/14 05:56:47;;;;;;;23.08;3.85;;;;;;;-143.98;100.00;68091.63;5073770;28;20365;-87
2021/03/14 05:59:16;;;;;;;22.20;3.67;;;;;;;-143.98;100.00;68091.63;5057483;28;20055;-86
2021/03/14 06:01:48;;;;;;;29.58;4.13;;;;;;;-143.98;100.00;68091.63;5058488;28;20347;-87
2021/03/14 06:04:19;;;;;;;9.57;2.97;;;;;;;-143.98;100.00;68091.63;5058402;28;20067;-87
2021/03/14 06:07:02;;;;;;;20.83;6.43;;;;;;;-143.98;100.00;68091.63;5077505;28;20087;-87
2021/03/14 06:09:38;;;;;;;5.93;1.92;;;;;;;-143.98;100.00;68091.63;5058397;28;20056;-86
2021/03/14 06:12:13;;;;;;;3.58;0.90;;;;;;;-143.98;100.00;68091.63;5061486;28;20072;-86
2021/03/14 06:14:43;;;;;;;5.32;0.90;;;;;;;-143.98;100.00;68091.63;5054778;28;20051;-86
2021/03/14 06:17:09;;;;;;;3.65;0.45;;;;;;;-143.98;100.00;68091.63;5061136;28;20040;-87
2021/03/14 06:19:37;;;;;;;9.15;0.93;;;;;;;-143.98;100.00;68091.63;5125730;28;20056;-88
2021/03/14 06:22:29;;;;;;;4.32;1.00;;;;;;;-143.98;100.00;68091.63;5075487;28;20052;-88
2021/03/14 06:24:55;;;;;;;2.20;1.10;;;;;;;-143.98;100.00;68091.63;5089728;28;20055;-87
2021/03/14 06:27:51;;;;;;;7.80;1.70;;;;;;;-143.98;100.00;68091.63;5072286;28;20271;-87
2021/03/14 06:30:25;;;;;;;16.88;1.83;;;;;;;-143.98;100.00;68091.63;5080663;28;20064;-85
2021/03/14 06:33:13;;;;;;;43.67;4.47;;;;;;;-143.98;100.00;68091.63;5093404;28;20028;-85
2021/03/14 06:35:53;;;;;;;20.17;2.03;;;;;;;-143.98;100.00;68091.63;5062148;28;20304;-85
2021/03/14 06:38:27;;;;;;;8.93;1.27;;;;;;;-143.98;100.00;68091.63;5058817;28;20052;-86
2021/03/14 06:40:59;;;;;;;8.68;1.52;;;;;;;-143.98;100.00;68091.63;5062545;28;20147;-86
2021/03/14 06:43:30;;;;;;;8.82;1.10;;;;;;;-143.98;100.00;68091.63;5099988;28;20124;-85
2021/03/14 06:45:59;;;;;;;6.38;1.20;;;;;;;-143.98;100.00;68091.63;5060842;28;20131;-85
2021/03/14 06:48:30;;;;;;;11.88;1.50;;;;;;;-143.98;100.00;68091.63;5063583;28;20044;-85
2021/03/14 06:50:56;;;;;;;10.30;1.50;;;;;;;-143.98;100.00;68091.63;5051219;28;20055;-85
2021/03/14 06:53:26;;;;;;;5.90;0.90;;;;;;;-143.98;100.00;68091.63;5080248;28;20059;-85
2021/03/14 06:56:05;;;;;;;3.40;1.00;;;;;;;-143.98;100.00;68091.63;5064368;28;20430;-85
2021/03/14 06:58:36;;;;;;;4.63;1.02;;;;;;;-143.98;100.00;68091.63;5082265;28;20106;-85
2021/03/14 07:01:15;;;;;;;5.68;1.02;;;;;;;-143.98;100.00;68091.63;5065798;28;20044;-86
2021/03/14 07:03:49;;;;;;;6.32;1.25;;;;;;;-143.98;100.00;68091.63;5064760;28;20054;-89
2021/03/14 07:06:28;;;;;;;18.23;2.88;;;;;;;-143.98;100.00;68091.63;5081430;28;20080;-85
2021/03/14 07:08:59;;;;;;;9.38;1.95;;;;;;;-143.98;100.00;68091.63;5078040;28;20146;-85
2021/03/14 07:11:43;;;;;;;10.13;2.40;;;;;;;-143.98;100.00;68091.63;5078278;28;20162;-85
2021/03/14 07:14:14;;;;;;;61.58;5.07;;;;;;;-143.98;100.00;68091.63;5078621;28;20468;-84
2021/03/14 07:16:53;;;;;;;7.63;1.52;;;;;;;-143.98;100.00;68091.63;5077257;28;20504;-85
2021/03/14 07:19:20;;;;;;;7.30;1.33;;;;;;;-143.98;100.00;68091.63;5075988;28;20073;-84
2021/03/14 07:21:57;;;;;;;10.38;1.52;;;;;;;-143.98;100.00;68091.63;5096369;28;20129;-85
2021/03/14 07:24:43;;;;;;;11.60;2.17;;;;;;;-143.98;100.00;68091.63;5087543;28;20341;-85
2021/03/14 07:27:11;;;;;;;11.00;2.78;;;;;;;-143.98;100.00;68091.63;5061133;28;20103;-88
2021/03/14 07:29:42;;;;;;;118.72;9.40;;;;;;;-143.98;100.00;68091.63;5076398;28;20062;-87
2021/03/14 07:32:08;;;;;;;69.97;6.60;;;;;;;-143.98;100.00;68091.63;5078633;28;20315;-89
2021/03/14 07:34:35;;;;;;;103.25;7.57;;;;;;;-143.98;100.00;68091.63;5077243;28;20075;-90
2021/03/14 07:37:04;;;;;;;8.70;2.72;;;;;;;-143.98;100.00;68091.63;5078432;28;20251;-89
2021/03/14 07:39:33;;;;;;;4.10;1.50;;;;;;;-143.98;100.00;68091.63;5084358;28;20047;-90
2021/03/14 07:42:01;;;;;;;6.07;1.58;;;;;;;-143.98;100.00;68091.63;5059766;28;20059;-86
2021/03/14 07:44:27;;;;;;;6.32;1.42;;;;;;;-143.98;100.00;68091.63;5058932;28;20043;-85
2021/03/14 07:46:55;;;;;;;5.40;1.30;;;;;;;-143.98;100.00;68091.63;5057508;28;20396;-84
2021/03/14 07:49:28;;;;;;;9.63;1.05;;;;;;;-143.98;100.00;68091.63;5059136;28;20055;-85
2021/03/14 07:52:02;;;;;;;43.70;3.95;;;;;;;-143.98;100.00;68091.63;5076151;28;20044;-84
2021/03/14 07:54:38;;;;;;;10.30;2.10;;;;;;;-143.98;100.00;68091.63;5075551;28;20059;-85
2021/03/14 07:57:07;;;;;;;9.98;2.05;;;;;;;-143.98;100.00;68091.63;5058329;28;20280;-85
2021/03/14 07:59:37;;;;;;;12.07;2.90;;;;;;;-143.98;100.00;68091.63;5059354;28;20266;-85
2021/03/14 08:02:29;;;;;;;16.67;4.40;;;;;;;-143.98;100.00;68091.63;5074057;28;20376;-85
2021/03/14 08:05:10;;;;;;;11.98;3.05;;;;;;;-143.98;100.00;68091.63;5081164;28;20092;-85
2021/03/14 08:07:40;;;;;;;13.55;3.05;;;;;;;-143.98;100.00;68091.63;5072065;28;20068;-85
2021/03/14 08:10:09;;;;;;;16.95;3.72;;;;;;;-143.98;100.00;68091.63;5058113;28;20495;-85
2021/03/14 08:12:40;;;;;;;11.75;2.75;;;;;;;-143.98;100.00;68091.63;5069284;28;20055;-85
2021/03/14 08:15:23;;;;;;;17.67;3.78;;;;;;;-143.98;100.00;68091.63;5074033;28;20366;-85
2021/03/14 08:17:52;;;;;;;19.23;3.70;;;;;;;-143.98;100.00;68091.63;5092140;28;20097;-85
2021/03/14 08:20:48;;;;;;;23.05;3.75;;;;;;;-143.98;100.00;68091.63;5061979;28;20070;-85
2021/03/14 08:23:18;;;;;;;17.27;4.30;;;;;;;-143.98;100.00;68091.63;5100200;28;20433;-84
2021/03/14 08:25:50;;;;;;;21.27;3.35;;;;;;;-143.98;100.00;68091.63;5056344;28;20090;-84
2021/03/14 08:28:22;;;;;;;13.63;3.03;;;;;;;-143.98;100.00;68091.63;5051738;28;20123;-85
2021/03/14 08:30:57;;;;;;;22.48;3.63;;;;;;;-143.98;100.00;68091.63;5103984;28;20472;-83
2021/03/14 08:33:33;;;;;;;15.25;3.28;;;;;;;-143.98;100.00;68091.63;5103617;28;20451;-84
2021/03/14 08:36:03;;;;;;;20.98;3.33;;;;;;;-143.98;100.00;68091.63;5070041;28;20049;-83
2021/03/14 08:38:57;;;;;;;15.77;3.63;;;;;;;-143.98;100.00;68091.63;5087561;28;20204;-84
2021/03/14 08:41:39;;;;;;;21.35;3.45;;;;;;;-143.98;100.00;68091.63;5082342;28;20095;-83
2021/03/14 08:44:12;;;;;;;22.17;3.47;;;;;;;-143.98;100.00;68091.63;5068537;28;20197;-83
2021/03/14 08:46:51;;;;;;;27.83;4.05;;;;;;;-143.98;100.00;68091.63;5071112;28;20193;-83
2021/03/14 08:49:20;;;;;;;19.17;3.42;;;;;;;-143.98;100.00;68091.63;5085753;28;20079;-83
2021/03/14 08:51:50;;;;;;;21.73;4.03;;;;;;;-143.98;100.00;68091.63;5087249;28;20094;-83
2021/03/14 08:54:38;;;;;;;27.27;3.85;;;;;;;-143.98;100.00;68091.63;5074040;28;20137;-83
2021/03/14 08:57:09;;;;;;;30.63;3.50;;;;;;;-143.98;100.00;68091.63;5056840;28;20048;-83
2021/03/14 08:59:36;;;;;;;24.23;4.20;;;;;;;-143.98;100.00;68091.63;5067758;28;20517;-83
2021/03/14 09:02:03;;;;;;;26.73;3.90;;;;;;;-143.98;100.00;68091.63;5069423;28;20106;-83
2021/03/14 09:04:33;;;;;;;24.33;3.15;;;;;;;-143.98;100.00;68091.63;5050971;28;20053;-83
2021/03/14 09:07:02;;;;;;;22.85;3.40;;;;;;;-143.98;100.00;68091.63;5066832;28;20204;-83
2021/03/14 09:09:32;;;;;;;30.30;4.60;;;;;;;-143.98;100.00;68091.63;5066799;28;20400;-83
2021/03/14 09:12:04;;;;;;;23.63;4.35;;;;;;;-143.98;100.00;68091.63;5051056;28;20041;-83
2021/03/14 09:14:33;;;;;;;19.65;4.00;;;;;;;-143.98;100.00;68091.63;5067250;28;20291;-83
2021/03/14 09:17:07;;;;;;;20.95;3.45;;;;;;;-143.98;100.00;68091.63;5064216;28;20075;-83
2021/03/14 09:19:39;;;;;;;14.10;3.25;;;;;;;-143.98;100.00;68091.63;5068271;28;20235;-83
2021/03/14 09:22:34;;;;;;;18.05;3.90;;;;;;;-143.98;100.00;68091.63;5051317;28;20044;-83
2021/03/14 09:25:08;;;;;;;21.15;3.72;;;;;;;-143.98;100.00;68091.63;5099308;28;20499;-83
2021/03/14 09:27:44;;;;;;;20.85;3.40;;;;;;;-143.98;100.00;68091.63;5068002;28;20052;-83
2021/03/14 09:30:11;;;;;;;17.35;3.08;;;;;;;-143.98;100.00;68091.63;5070447;28;20043;-82
2021/03/14 09:32:41;;;;;;;20.58;3.35;;;;;;;-143.98;100.00;68091.63;5085244;28;20060;-82
2021/03/14 09:35:17;;;;;;;20.52;2.90;;;;;;;-143.98;100.00;68091.63;5068689;28;20162;-82
2021/03/14 09:37:52;;;;;;;15.47;3.27;;;;;;;-143.98;100.00;68091.63;5068723;28;20071;-82
2021/03/14 09:40:42;;;;;;;15.95;3.13;;;;;;;-143.98;100.00;68091.63;5066084;28;20113;-82
2021/03/14 09:43:16;;;;;;;11.65;3.13;;;;;;;-143.98;100.00;68091.63;5042241;28;20059;-83
2021/03/14 09:45:51;;;;;;;17.33;3.67;;;;;;;-143.98;100.00;68091.63;5099697;28;20115;-83
2021/03/14 09:48:24;;;;;;;13.27;2.38;;;;;;;-143.98;100.00;68091.63;5083941;28;20442;-83
2021/03/14 09:51:26;;;;;;;12.70;2.40;;;;;;;-143.98;100.00;68091.63;5077543;28;20236;-83
2021/03/14 09:53:52;;;;;;;18.92;2.72;;;;;;;-143.98;100.00;68091.63;5079382;28;20056;-83
2021/03/14 09:56:19;;;;;;;14.95;2.13;;;;;;;-143.98;100.00;68091.63;5074590;28;20332;-83
2021/03/14 09:58:47;;;;;;;14.57;3.03;;;;;;;-143.98;100.00;68091.63;5058740;28;20045;-83
2021/03/14 10:01:19;;;;;;;12.85;2.53;;;;;;;-143.98;100.00;68091.63;5076192;28;20063;-83
2021/03/14 10:03:58;;;;;;;14.90;3.10;;;;;;;-143.98;100.00;68091.63;5063335;28;20213;-83
2021/03/14 10:06:40;;;;;;;16.02;2.65;;;;;;;-143.98;100.00;68091.63;5083777;28;20062;-83
2021/03/14 10:09:23;;;;;;;8.75;2.20;;;;;;;-143.98;100.00;68091.63;5085713;28;20237;-83
2021/03/14 10:11:53;;;;;;;10.98;2.42;;;;;;;-143.98;100.00;68091.63;5056365;28;20055;-83
2021/03/14 10:14:21;;;;;;;6.10;1.65;;;;;;;-143.98;100.00;68091.63;5050650;28;20049;-83
2021/03/14 10:16:51;;;;;;;10.85;2.15;;;;;;;-143.98;100.00;68091.63;5085996;28;20045;-83
2021/03/14 10:19:21;;;;;;;11.43;2.28;;;;;;;-143.98;100.00;68091.63;5065559;28;20187;-83
2021/03/14 10:21:48;;;;;;;9.90;1.75;;;;;;;-143.98;100.00;68091.63;5069728;28;20056;-83
2021/03/14 10:24:25;;;;;;;5.22;1.38;;;;;;;-143.98;100.00;68091.63;5071079;28;20056;-83
2021/03/14 10:27:01;;;;;;;8.23;2.20;;;;;;;-143.98;100.00;68091.63;5073063;28;20055;-83
2021/03/14 10:29:32;;;;;;;6.13;2.10;;;;;;;-143.98;100.00;68091.63;5071967;28;20170;-83
2021/03/14 10:32:00;;;;;;;10.18;1.92;;;;;;;-143.98;100.00;68091.63;5069189;28;20256;-83
2021/03/14 10:34:27;;;;;;;9.35;1.88;;;;;;;-143.98;100.00;68091.63;5054833;28;20059;-83
2021/03/14 10:36:56;;;;;;;7.68;1.83;;;;;;;-143.98;100.00;68091.63;5074838;28;20060;-83
2021/03/14 10:39:29;;;;;;;7.43;1.60;;;;;;;-143.98;100.00;68091.63;5069746;28;20056;-85
2021/03/14 10:41:56;;;;;;;8.23;1.70;;;;;;;-143.98;100.00;68091.63;5086619;28;20055;-84
2021/03/14 10:44:25;;;;;;;10.00;2.28;;;;;;;-143.98;100.00;68091.63;5070304;28;20044;-85
2021/03/14 10:46:57;;;;;;;13.10;1.73;;;;;;;-143.98;100.00;68091.63;5088207;28;20044;-85
2021/03/14 10:49:30;;;;;;;8.10;1.70;;;;;;;-143.98;100.00;68091.63;5092429;28;20279;-85
2021/03/14 10:51:59;;;;;;;7.55;1.50;;;;;;;-143.98;100.00;68091.63;5091420;28;20501;-84
2021/03/14 10:54:35;;;;;;;7.15;1.38;;;;;;;-143.98;100.00;68091.63;5096343;28;20374;-84
2021/03/14 10:57:13;;;;;;;4.85;1.45;;;;;;;-143.98;100.00;68091.63;5056204;28;20154;-84
2021/03/14 10:59:40;;;;;;;9.07;1.42;;;;;;;-143.98;100.00;68091.63;5054823;28;20125;-84
2021/03/14 11:02:13;;;;;;;8.15;1.08;;;;;;;-143.98;100.00;68091.63;5057188;28;20132;-84
2021/03/14 11:04:40;;;;;;;8.38;1.25;;;;;;;-143.98;100.00;68091.63;5077419;28;20056;-84
2021/03/14 11:07:29;;;;;;;4.18;1.10;;;;;;;-143.98;100.00;68091.63;5057505;28;20082;-83
2021/03/14 11:10:11;;;;;;;5.43;1.50;;;;;;;-143.98;100.00;68091.63;5073669;28;20071;-83
2021/03/14 11:12:52;;;;;;;7.72;1.15;;;;;;;-143.98;100.00;68091.63;5073925;28;20210;-83
2021/03/14 11:15:33;;;;;;;10.02;1.58;;;;;;;-143.98;100.00;68091.63;5076326;28;20119;-83
2021/03/14 11:18:19;;;;;;;10.07;1.83;;;;;;;-143.98;100.00;68091.63;5074366;28;20272;-83
2021/03/14 11:20:48;;;;;;;10.23;1.50;;;;;;;-143.98;100.00;68091.63;5076587;28;20198;-83
2021/03/14 11:23:14;;;;;;;5.60;1.30;;;;;;;-143.98;100.00;68091.63;5057088;28;20486;-83
2021/03/14 11:25:40;;;;;;;7.53;1.20;;;;;;;-143.98;100.00;68091.63;5091178;28;20109;-83
2021/03/14 11:28:47;;;;;;;4.57;1.30;;;;;;;-143.98;100.00;68091.63;5079410;28;20028;-85